Decoded Metar for UUDD (MOSCOW/DOMODEDOVO in RUSSIA) (IATA:N/A) | Meteo·Mobile Aviation Weather
aviador You're here:

UUDD Decoded Metar

MOSCOW/DOMODEDOVO in RUSSIA
Report Time2018-08-21 07:30:00
UTC Time2018-08-21 07:51:04
Flight Rules vfr VFR
Wind210° at 14 Gusting to 23 kt
W.Decomp.*RWY 14: 7.0 kt HW 12.1 kt RCW
W.Rank210° ranks 18
Current wind is above 210° avg. (7.0)
Visibility9999 m
Phenomena:N/A
Clouds:Few 046 Hf
Expected CloudBase > 4,000 ft AGL from Temp-Dew spread
CeilingNone
Temp25°C (ISA +11)
Dew Point15°C (54% RH)
AAT21.6°C
QNH1006 hPa
Density Alt2,300 ft
Elevation551 ft
Report Wrong Elevation
Raw Report
METAR UUDD 210730Z 21007G12MPS 180V250 9999 FEW046 25/15 Q1006 R88/010095
NOSIG=

Extra information for UUDD:More info

Metar Taf Metar & Taf Last 4 Metars F.Rules Stats Wind Profile Meteogram Temp Stats Airport Information Weather charts Add Link Nearby VenuesMetar ALERT Operation Metar Decoded Social comments